Time;durP1;ratioP1;P1;durP2;ratioP2;P2;SDS_P1;SDS_P2;PMS_P1;PMS_P2;Temp;Humidity;BMP_temperature;BMP_pressure;BME280_temperature;BME280_humidity;BME280_pressure;Samples;Min_cycle;Max_cycle;Signal;HPM_P1;HPM_P2
2022/12/18 00:01:34;;;;;;;1.65;0.57;;;;;;;8.80;65.21;95860.19;5007838;28;20231;-68
2022/12/18 00:04:04;;;;;;;0.20;0.20;;;;;;;8.83;65.36;95849.28;5008384;28;20225;-68
2022/12/18 00:06:40;;;;;;;0.13;0.13;;;;;;;8.79;64.75;95858.59;5008517;28;20715;-67
2022/12/18 00:09:09;;;;;;;0.43;0.43;;;;;;;8.94;64.83;95856.38;5008408;28;20255;-68
2022/12/18 00:11:42;;;;;;;0.03;0.03;;;;;;;8.66;65.38;95856.16;5007267;28;20735;-67
2022/12/18 00:14:14;;;;;;;0.75;0.75;;;;;;;8.76;65.07;95859.03;5007536;28;20301;-67
2022/12/18 00:16:47;;;;;;;0.50;0.50;;;;;;;8.51;65.42;95860.94;5007729;28;20182;-65
2022/12/18 00:19:18;;;;;;;0.95;0.55;;;;;;;8.51;64.80;95866.16;5008546;28;20259;-66
2022/12/18 00:22:14;;;;;;;0.47;0.47;;;;;;;8.47;65.67;95877.25;5006056;28;20217;-70
2022/12/18 00:24:46;;;;;;;1.25;1.05;;;;;;;8.72;64.65;95867.53;5007864;28;20222;-67
2022/12/18 00:27:16;;;;;;;0.00;0.00;;;;;;;8.38;65.56;95861.09;5005801;28;20197;-67
2022/12/18 00:29:47;;;;;;;0.20;0.20;;;;;;;8.81;64.51;95877.44;5007858;28;20194;-68
2022/12/18 00:32:21;;;;;;;0.00;0.00;;;;;;;8.39;65.64;95894.03;5004587;28;20208;-67
2022/12/18 00:34:48;;;;;;;0.10;0.10;;;;;;;8.26;65.69;95886.34;5006378;28;20264;-68
2022/12/18 00:37:16;;;;;;;0.47;0.47;;;;;;;8.61;64.58;95891.78;5007666;28;20285;-66
2022/12/18 00:39:55;;;;;;;17.25;2.22;;;;;;;8.79;64.01;95887.34;5007759;28;20201;-66
2022/12/18 00:45:33;;;;;;;0.00;0.00;;;;;;;8.70;63.64;95886.06;5002778;28;20743;-67
2022/12/18 00:48:04;;;;;;;0.05;0.05;;;;;;;9.22;62.58;95889.78;5003750;28;20206;-67
2022/12/18 00:50:38;;;;;;;0.00;0.00;;;;;;;8.74;63.02;95897.63;5010267;28;20197;-66
2022/12/18 00:53:05;;;;;;;4.70;2.25;;;;;;;8.53;63.21;95908.53;5023341;28;20190;-66
2022/12/18 00:55:39;;;;;;;0.05;0.05;;;;;;;8.98;62.52;95904.59;5007305;28;20296;-67
2022/12/18 00:58:13;;;;;;;0.22;0.22;;;;;;;8.70;62.52;95906.97;5007106;28;20209;-67
2022/12/18 01:00:42;;;;;;;0.00;0.00;;;;;;;8.56;62.97;95908.09;5010204;28;20202;-65
2022/12/18 01:03:13;;;;;;;0.03;0.03;;;;;;;8.44;63.41;95911.66;5011863;28;20228;-68
2022/12/18 01:05:44;;;;;;;0.00;0.00;;;;;;;8.43;63.54;95910.84;5012096;28;20304;-66
2022/12/18 01:11:18;;;;;;;0.40;0.40;;;;;;;8.91;61.77;95919.56;5011867;28;20661;-67
2022/12/18 01:13:53;;;;;;;0.30;0.30;;;;;;;8.76;62.33;95918.31;5010178;28;20268;-67
2022/12/18 01:16:28;;;;;;;0.88;0.88;;;;;;;8.63;62.35;95921.88;5000426;28;20201;-65
2022/12/18 01:18:59;;;;;;;0.47;0.47;;;;;;;8.57;62.30;95928.00;5012252;28;20209;-68
2022/12/18 01:21:52;;;;;;;0.00;0.00;;;;;;;8.35;62.82;95928.63;5011736;28;20228;-63
2022/12/18 01:24:26;;;;;;;0.10;0.10;;;;;;;8.09;63.91;95932.25;4998236;28;20245;-67
2022/12/18 01:26:54;;;;;;;0.30;0.30;;;;;;;8.33;63.07;95923.63;5011753;28;20209;-66
2022/12/18 01:29:25;;;;;;;2.70;1.23;;;;;;;8.12;63.68;95918.75;5010989;28;20206;-65
2022/12/18 01:31:55;;;;;;;0.17;0.17;;;;;;;8.28;63.17;95928.69;5011642;28;20229;-65
2022/12/18 01:34:23;;;;;;;0.00;0.00;;;;;;;8.39;62.91;95925.38;5009973;28;20336;-66
2022/12/18 01:36:57;;;;;;;0.00;0.00;;;;;;;8.33;62.64;95936.69;5009991;28;20210;-66
2022/12/18 01:39:25;;;;;;;0.00;0.00;;;;;;;8.10;62.38;95915.59;5011033;28;20198;-66
2022/12/18 01:42:02;;;;;;;0.00;0.00;;;;;;;7.82;63.48;95921.25;5011033;28;20595;-67
2022/12/18 01:48:06;;;;;;;0.00;0.00;;;;;;;7.98;63.68;95948.59;5011156;28;20635;-65
2022/12/18 01:50:44;;;;;;;0.75;0.55;;;;;;;7.80;64.09;95948.53;5009833;28;20201;-66
2022/12/18 01:53:21;;;;;;;0.10;0.10;;;;;;;7.62;64.57;95951.09;5011282;28;20201;-66
2022/12/18 01:56:42;;;;;;;3.53;1.02;;;;;;;8.07;63.10;95957.75;5011497;28;20197;-69
2022/12/18 01:59:37;;;;;;;0.00;0.00;;;;;;;7.96;63.07;95950.63;5006227;28;20213;-70
2022/12/18 02:02:10;;;;;;;0.52;0.52;;;;;;;8.12;62.69;95950.09;5010984;28;20230;-67
2022/12/18 02:04:41;;;;;;;0.28;0.28;;;;;;;7.85;63.38;95961.75;5009903;28;20225;-69
2022/12/18 02:07:46;;;;;;;0.40;0.22;;;;;;;7.98;62.51;95956.44;5009994;28;20244;-67
2022/12/18 02:10:22;;;;;;;0.00;0.00;;;;;;;8.07;62.02;95968.19;5015844;28;20580;-68
2022/12/18 02:13:02;;;;;;;0.00;0.00;;;;;;;7.67;62.72;95977.34;5010394;28;20673;-65
2022/12/18 02:15:46;;;;;;;0.30;0.30;;;;;;;7.69;63.20;95965.69;5010004;28;20236;-67
2022/12/18 02:18:37;;;;;;;0.00;0.00;;;;;;;7.78;63.00;95974.06;5009241;28;20630;-64
2022/12/18 02:21:30;;;;;;;0.00;0.00;;;;;;;7.73;63.00;95984.31;5010678;28;20213;-67
2022/12/18 02:24:42;;;;;;;1.65;0.80;;;;;;;7.94;62.37;95981.34;4997716;28;20201;-66
2022/12/18 02:27:13;;;;;;;2.15;0.60;;;;;;;8.00;62.18;95988.34;5010567;28;20234;-65
2022/12/18 02:29:53;;;;;;;0.40;0.40;;;;;;;7.60;62.39;95987.00;5009179;28;20545;-64
2022/12/18 02:32:35;;;;;;;0.15;0.15;;;;;;;7.58;62.45;95978.59;5013771;28;20202;-65
2022/12/18 02:35:16;;;;;;;0.00;0.00;;;;;;;7.48;63.17;95979.03;5025426;28;20205;-67
2022/12/18 02:37:46;;;;;;;0.25;0.17;;;;;;;7.27;63.32;95981.19;5009069;28;20288;-67
2022/12/18 02:40:27;;;;;;;0.40;0.40;;;;;;;7.00;64.58;95986.53;5024934;28;20198;-66
2022/12/18 02:42:54;;;;;;;5.03;0.85;;;;;;;6.85;65.08;95996.38;5009273;28;20287;-66
2022/12/18 02:45:23;;;;;;;0.52;0.40;;;;;;;7.10;64.28;96012.94;5008787;28;20198;-66
2022/12/18 02:47:52;;;;;;;0.08;0.08;;;;;;;6.90;64.98;96012.19;5008666;28;20237;-69
2022/12/18 02:50:43;;;;;;;0.00;0.00;;;;;;;7.28;63.83;96008.84;5008847;28;20190;-68
2022/12/18 02:53:51;;;;;;;0.20;0.20;;;;;;;7.22;63.64;96004.47;5010363;28;20198;-66
2022/12/18 02:59:45;;;;;;;0.45;0.38;;;;;;;7.05;63.99;96002.34;5010345;28;20209;-67
2022/12/18 03:02:46;;;;;;;0.05;0.05;;;;;;;6.98;64.42;96014.59;5008274;28;20312;-66
2022/12/18 03:05:51;;;;;;;0.10;0.10;;;;;;;7.25;63.98;96022.28;5009861;28;20268;-65
2022/12/18 03:08:24;;;;;;;0.00;0.00;;;;;;;7.08;64.11;96025.38;4989214;28;20306;-66
2022/12/18 03:11:03;;;;;;;0.25;0.25;;;;;;;6.98;64.79;96025.00;5004679;28;20614;-62
2022/12/18 03:13:58;;;;;;;0.80;0.80;;;;;;;6.96;64.21;96027.00;5008889;28;20228;-65
2022/12/18 03:16:31;;;;;;;0.93;0.93;;;;;;;7.24;63.74;96023.31;4997452;28;20198;-67
2022/12/18 03:19:11;;;;;;;1.98;1.80;;;;;;;7.75;62.73;96026.66;5008084;28;20477;-66
2022/12/18 03:22:07;;;;;;;0.45;0.45;;;;;;;7.65;62.20;96026.31;5023471;28;20224;-67
2022/12/18 03:27:52;;;;;;;0.00;0.00;;;;;;;7.13;63.55;96027.38;4997230;28;20202;-66
2022/12/18 03:30:28;;;;;;;0.15;0.15;;;;;;;7.37;62.65;96033.69;5007947;28;20199;-66
2022/12/18 03:33:20;;;;;;;0.00;0.00;;;;;;;7.12;63.32;96036.97;5009496;28;20204;-69
2022/12/18 03:37:03;;;;;;;0.00;0.00;;;;;;;7.16;63.19;96048.59;5000696;28;20209;-67
2022/12/18 03:40:51;;;;;;;0.08;0.08;;;;;;;7.36;63.03;96058.13;5006011;28;20299;-65
2022/12/18 03:43:58;;;;;;;0.20;0.20;;;;;;;6.92;63.34;96048.47;5009469;28;20680;-66
2022/12/18 03:47:02;;;;;;;1.70;1.25;;;;;;;7.14;62.77;96049.81;5007607;28;20206;-66
2022/12/18 03:50:23;;;;;;;0.35;0.35;;;;;;;7.28;62.28;96047.97;5009307;28;20193;-67
2022/12/18 03:53:07;;;;;;;0.30;0.30;;;;;;;6.80;62.40;96058.72;5009541;28;20625;-66
2022/12/18 03:55:40;;;;;;;0.47;0.47;;;;;;;7.16;62.05;96063.44;4987632;28;20274;-67
2022/12/18 03:58:18;;;;;;;0.00;0.00;;;;;;;7.27;60.51;96070.63;5020745;28;20205;-67
2022/12/18 04:01:16;;;;;;;0.60;0.60;;;;;;;7.17;60.78;96089.28;5013208;28;20213;-67
2022/12/18 04:06:48;;;;;;;0.05;0.05;;;;;;;7.08;61.66;96074.06;4995733;28;20207;-65
2022/12/18 04:09:45;;;;;;;0.00;0.00;;;;;;;6.81;62.00;96064.72;5023772;28;20653;-67
2022/12/18 04:12:18;;;;;;;5.07;0.65;;;;;;;7.05;61.03;96083.13;5007248;28;20297;-64
2022/12/18 04:15:35;;;;;;;0.00;0.00;;;;;;;7.18;61.14;96080.47;5008494;28;20299;-69
2022/12/18 04:21:12;;;;;;;0.30;0.30;;;;;;;7.25;60.57;96097.88;4996724;28;20225;-68
2022/12/18 04:23:43;;;;;;;1.85;1.65;;;;;;;7.29;59.84;96101.69;5007474;28;20240;-66
2022/12/18 04:26:18;;;;;;;0.45;0.45;;;;;;;7.46;59.70;96100.25;5007407;28;20205;-66
2022/12/18 04:29:04;;;;;;;0.25;0.25;;;;;;;7.12;60.11;96104.75;5008562;28;20205;-67
2022/12/18 04:34:52;;;;;;;0.68;0.52;;;;;;;7.08;59.69;96113.97;5008767;28;20198;-66
2022/12/18 04:37:51;;;;;;;0.32;0.32;;;;;;;7.13;59.83;96106.34;5011633;28;20193;-64
2022/12/18 04:40:19;;;;;;;1.80;1.65;;;;;;;7.17;59.10;96112.75;5010849;28;20244;-67
2022/12/18 04:43:17;;;;;;;0.10;0.10;;;;;;;7.26;58.55;96115.16;5010302;28;20267;-63
2022/12/18 04:45:53;;;;;;;0.00;0.00;;;;;;;7.35;58.75;96119.13;5011427;28;20683;-66
2022/12/18 04:48:52;;;;;;;0.25;0.25;;;;;;;7.45;58.46;96122.91;5010065;28;20683;-67
2022/12/18 04:51:22;;;;;;;0.70;0.70;;;;;;;7.26;58.20;96133.41;5012204;28;20197;-64
2022/12/18 04:54:19;;;;;;;0.50;0.50;;;;;;;7.36;58.70;96131.16;5012357;28;20557;-67
2022/12/18 04:56:52;;;;;;;0.45;0.45;;;;;;;6.93;59.02;96136.84;5012112;28;20204;-66
2022/12/18 05:00:12;;;;;;;0.00;0.00;;;;;;;7.17;57.74;96143.25;5012134;28;20209;-65
2022/12/18 05:03:09;;;;;;;0.00;0.00;;;;;;;6.73;58.62;96146.47;5011989;28;20704;-66
2022/12/18 05:06:01;;;;;;;0.03;0.03;;;;;;;6.79;58.44;96140.47;5011871;28;20212;-69
2022/12/18 05:08:30;;;;;;;0.30;0.30;;;;;;;7.00;57.93;96137.66;5012344;28;20579;-67
2022/12/18 05:11:10;;;;;;;0.30;0.30;;;;;;;6.84;58.48;96143.25;5011361;28;20285;-68
2022/12/18 05:13:41;;;;;;;0.00;0.00;;;;;;;6.87;58.29;96144.69;5011791;28;20649;-65
2022/12/18 05:17:01;;;;;;;0.63;0.63;;;;;;;6.72;57.99;96159.72;4999911;28;20228;-65
2022/12/18 05:19:55;;;;;;;0.65;0.65;;;;;;;6.90;58.18;96165.91;5002622;28;20598;-65
2022/12/18 05:22:48;;;;;;;0.55;0.52;;;;;;;6.63;59.00;96166.13;4999219;28;20206;-65
2022/12/18 05:26:07;;;;;;;0.52;0.52;;;;;;;6.90;58.41;96181.56;5011267;28;20252;-64
2022/12/18 05:29:49;;;;;;;0.20;0.20;;;;;;;6.89;57.63;96182.56;5011599;28;20332;-67
2022/12/18 05:44:46;;;;;;;0.10;0.10;;;;;;;6.57;58.13;96209.38;4974731;23;20263;-63
2022/12/18 05:47:13;;;;;;;0.45;0.45;;;;;;;6.97;57.23;96211.00;4932833;29;20196;-67
2022/12/18 05:49:40;;;;;;;0.00;0.00;;;;;;;7.09;56.54;96191.19;4931295;29;20211;-66
2022/12/18 05:52:07;;;;;;;3.20;2.35;;;;;;;6.97;56.89;96200.59;4935663;29;20235;-68
2022/12/18 05:54:34;;;;;;;1.35;0.55;;;;;;;7.02;56.65;96193.00;4938327;29;20200;-67
2022/12/18 05:57:01;;;;;;;1.10;1.00;;;;;;;7.41;56.42;96201.75;4919244;29;20208;-68
2022/12/18 05:59:27;;;;;;;1.30;1.20;;;;;;;7.22;55.98;96210.41;4932631;29;20197;-65
2022/12/18 06:01:54;;;;;;;0.98;0.98;;;;;;;6.74;57.22;96215.81;4934469;29;20208;-62
2022/12/18 06:04:22;;;;;;;0.52;0.52;;;;;;;7.11;55.97;96217.84;4933719;29;20228;-66
2022/12/18 06:06:49;;;;;;;0.75;0.70;;;;;;;6.76;56.09;96216.44;4933461;29;20196;-70
2022/12/18 06:09:16;;;;;;;10.15;2.55;;;;;;;7.11;56.02;96217.84;4933498;29;20197;-67
2022/12/18 06:11:43;;;;;;;1.85;1.75;;;;;;;7.04;56.42;96227.44;4933333;29;20235;-66
2022/12/18 06:14:10;;;;;;;1.35;1.25;;;;;;;7.05;55.99;96229.06;4933190;29;20694;-67
2022/12/18 06:16:36;;;;;;;0.50;0.50;;;;;;;6.93;55.86;96220.22;4933573;29;20730;-65
2022/12/18 06:19:05;;;;;;;0.85;0.85;;;;;;;6.91;56.23;96232.69;4933672;29;20200;-65
2022/12/18 06:21:32;;;;;;;0.30;0.28;;;;;;;6.53;57.48;96239.41;4933036;29;20204;-66
2022/12/18 06:24:00;;;;;;;0.20;0.20;;;;;;;6.74;56.54;96241.88;4933148;29;20209;-68
2022/12/18 06:26:27;;;;;;;0.40;0.40;;;;;;;6.82;55.83;96233.88;4933773;29;20239;-64
2022/12/18 06:28:55;;;;;;;2.38;1.95;;;;;;;7.04;56.20;96232.66;4933765;29;20203;-66
2022/12/18 06:31:23;;;;;;;0.13;0.13;;;;;;;7.12;56.02;96234.25;4933508;29;20207;-66
2022/12/18 06:33:50;;;;;;;3.90;3.22;;;;;;;7.02;55.43;96260.75;4933309;29;20193;-65
2022/12/18 06:36:17;;;;;;;1.38;1.25;;;;;;;6.84;56.21;96252.69;4933381;29;20201;-66
2022/12/18 06:38:44;;;;;;;0.00;0.00;;;;;;;6.79;56.06;96259.50;4933169;29;20212;-67
2022/12/18 06:41:21;;;;;;;0.00;0.00;;;;;;;6.73;56.40;96261.09;4933058;29;20197;-67
2022/12/18 06:43:48;;;;;;;0.00;0.00;;;;;;;6.87;56.14;96264.53;4933230;29;20267;-64
2022/12/18 06:46:15;;;;;;;0.13;0.13;;;;;;;7.26;55.76;96267.16;4915728;29;20209;-66
2022/12/18 06:48:48;;;;;;;0.30;0.30;;;;;;;6.98;55.45;96264.75;4932570;29;20219;-68
2022/12/18 06:51:20;;;;;;;2.38;1.38;;;;;;;6.91;56.18;96269.16;4932771;29;20279;-65
2022/12/18 06:53:48;;;;;;;6.95;3.15;;;;;;;7.26;55.30;96259.34;4932621;29;20201;-66
2022/12/18 06:56:14;;;;;;;0.85;0.85;;;;;;;6.58;55.55;96252.66;4932468;29;20235;-65
2022/12/18 06:58:41;;;;;;;0.10;0.10;;;;;;;6.84;55.96;96260.50;4932578;29;20235;-66
2022/12/18 07:01:11;;;;;;;2.95;0.75;;;;;;;7.08;55.32;96272.97;4932678;29;20676;-67
2022/12/18 07:03:39;;;;;;;0.85;0.85;;;;;;;6.91;54.99;96279.59;4932805;29;20225;-66
2022/12/18 07:06:13;;;;;;;0.00;0.00;;;;;;;6.99;55.48;96271.56;4932656;29;20295;-66
2022/12/18 07:08:40;;;;;;;0.80;0.80;;;;;;;6.60;55.57;96281.13;4932479;29;20525;-66
2022/12/18 07:11:07;;;;;;;1.08;0.88;;;;;;;6.45;55.70;96285.66;4932254;29;20201;-69
2022/12/18 07:13:34;;;;;;;0.28;0.28;;;;;;;6.86;54.11;96287.16;4929865;29;20672;-67
2022/12/18 07:16:13;;;;;;;1.08;0.85;;;;;;;6.62;54.73;96286.94;4922097;29;20668;-66
2022/12/18 07:18:50;;;;;;;0.00;0.00;;;;;;;6.68;54.69;96284.31;4926127;29;20661;-66
2022/12/18 07:21:19;;;;;;;2.05;1.00;;;;;;;6.89;54.71;96294.59;4931646;29;20220;-65
2022/12/18 07:23:47;;;;;;;2.28;0.95;;;;;;;6.84;54.50;96289.16;4932490;29;20724;-68
2022/12/18 07:26:18;;;;;;;0.13;0.13;;;;;;;7.35;52.77;96270.34;4932565;29;20207;-67
2022/12/18 07:28:46;;;;;;;0.15;0.15;;;;;;;6.99;54.08;96291.59;4932435;29;20189;-67
2022/12/18 07:31:18;;;;;;;5.88;1.73;;;;;;;7.07;53.64;96294.03;4932006;29;20211;-66
2022/12/18 07:33:48;;;;;;;0.10;0.10;;;;;;;6.97;54.35;96302.22;4931970;29;20722;-66
2022/12/18 07:36:15;;;;;;;1.73;1.60;;;;;;;7.03;53.99;96309.25;4932225;29;20284;-66
2022/12/18 07:38:42;;;;;;;1.90;1.75;;;;;;;7.32;52.91;96302.06;4931992;29;20216;-67
2022/12/18 07:41:11;;;;;;;1.67;1.58;;;;;;;7.17;53.82;96300.44;4932079;29;20211;-68
2022/12/18 07:43:40;;;;;;;0.13;0.08;;;;;;;7.37;53.53;96299.66;4931586;29;20307;-66
2022/12/18 07:46:09;;;;;;;0.55;0.47;;;;;;;6.96;54.19;96318.06;4929366;29;20215;-66
2022/12/18 07:48:38;;;;;;;0.00;0.00;;;;;;;7.00;54.36;96317.47;4923793;29;20675;-65
2022/12/18 07:51:07;;;;;;;0.13;0.13;;;;;;;6.93;54.98;96323.69;4926087;29;20204;-64
2022/12/18 07:53:35;;;;;;;1.02;1.02;;;;;;;7.26;54.29;96314.09;4930885;29;20573;-67
2022/12/18 07:56:10;;;;;;;0.80;0.80;;;;;;;7.07;53.98;96318.28;4931620;29;20222;-67
2022/12/18 07:58:56;;;;;;;1.90;1.75;;;;;;;6.62;55.47;96333.81;4923055;29;20196;-65
2022/12/18 08:01:23;;;;;;;0.82;0.82;;;;;;;6.48;55.53;96330.34;4931119;29;20220;-66
2022/12/18 08:03:50;;;;;;;0.20;0.20;;;;;;;6.58;55.50;96336.00;4931707;29;20219;-65
2022/12/18 08:06:18;;;;;;;0.43;0.43;;;;;;;6.78;55.06;96342.06;4931800;29;20292;-67
2022/12/18 08:08:54;;;;;;;1.02;0.95;;;;;;;6.76;55.61;96354.50;4931958;29;20220;-64
2022/12/18 08:11:23;;;;;;;1.02;0.90;;;;;;;6.90;55.04;96353.53;4935211;29;20276;-66
2022/12/18 08:13:50;;;;;;;0.30;0.30;;;;;;;6.95;55.20;96353.72;4934601;29;20569;-65
2022/12/18 08:16:17;;;;;;;1.95;1.38;;;;;;;6.59;55.64;96357.63;4934711;29;20654;-65
2022/12/18 08:18:45;;;;;;;0.00;0.00;;;;;;;6.43;56.13;96374.41;4938031;29;20647;-65
2022/12/18 08:21:12;;;;;;;1.48;0.98;;;;;;;6.58;56.86;96372.47;4944942;29;20204;-65
2022/12/18 08:23:39;;;;;;;1.67;1.23;;;;;;;7.22;58.03;96370.25;4934770;29;20616;-66
2022/12/18 08:26:11;;;;;;;1.13;0.80;;;;;;;7.06;55.27;96366.19;4935503;29;20211;-66
2022/12/18 08:28:38;;;;;;;0.20;0.20;;;;;;;6.40;56.48;96380.00;4935251;29;20296;-66
2022/12/18 08:31:06;;;;;;;0.45;0.45;;;;;;;6.38;57.00;96382.00;4934657;29;20566;-67
2022/12/18 08:33:34;;;;;;;0.10;0.10;;;;;;;5.86;57.57;96387.69;4934733;29;20227;-63
2022/12/18 08:36:02;;;;;;;0.73;0.73;;;;;;;5.93;57.19;96387.72;4934648;29;20200;-65
2022/12/18 08:38:29;;;;;;;3.05;0.60;;;;;;;6.16;56.85;96377.88;4929936;29;20295;-68
2022/12/18 08:41:03;;;;;;;0.17;0.17;;;;;;;6.21;56.93;96385.91;4934601;29;20727;-64
2022/12/18 08:46:17;;;;;;;0.55;0.55;;;;;;;6.53;56.59;96385.25;4934739;29;20200;-69
2022/12/18 08:48:44;;;;;;;0.85;0.85;;;;;;;6.39;58.62;96383.59;4934717;29;20228;-62
2022/12/18 08:51:11;;;;;;;1.88;1.77;;;;;;;6.94;54.50;96387.81;4933992;29;20220;-66
2022/12/18 08:53:39;;;;;;;0.10;0.10;;;;;;;6.50;55.23;96396.06;4933865;29;20275;-65
2022/12/18 08:56:07;;;;;;;0.43;0.43;;;;;;;6.56;55.12;96384.88;4934477;29;20680;-63
2022/12/18 08:58:34;;;;;;;0.00;0.00;;;;;;;6.66;54.99;96394.94;4934476;29;20232;-64
2022/12/18 09:01:05;;;;;;;2.40;1.30;;;;;;;6.52;55.13;96391.47;4934356;29;20756;-64
2022/12/18 09:03:32;;;;;;;3.45;0.73;;;;;;;6.92;54.68;96385.41;4934661;29;20260;-68
2022/12/18 09:05:59;;;;;;;0.47;0.47;;;;;;;6.23;54.65;96381.31;4934908;29;20613;-63
2022/12/18 09:08:27;;;;;;;0.25;0.25;;;;;;;6.41;54.15;96386.81;4934666;29;20573;-62
2022/12/18 09:10:54;;;;;;;0.65;0.65;;;;;;;6.12;53.78;96381.84;4934322;29;20224;-64
2022/12/18 09:13:22;;;;;;;0.90;0.80;;;;;;;6.45;53.41;96388.03;4934354;29;20205;-66
2022/12/18 09:15:53;;;;;;;1.55;1.45;;;;;;;7.27;54.35;96383.47;4934109;29;20303;-67
2022/12/18 09:18:22;;;;;;;0.82;0.70;;;;;;;7.23;53.10;96379.66;4933882;29;20264;-65
2022/12/18 09:20:51;;;;;;;0.30;0.30;;;;;;;7.01;52.03;96379.00;4933845;29;20208;-67
2022/12/18 09:23:19;;;;;;;0.80;0.80;;;;;;;6.87;52.19;96377.38;4933677;29;20215;-68
2022/12/18 09:25:46;;;;;;;1.75;0.63;;;;;;;6.95;52.04;96385.00;4933898;29;20184;-69
2022/12/18 09:28:15;;;;;;;1.80;1.70;;;;;;;6.68;51.73;96375.50;4933225;29;20203;-68
2022/12/18 09:30:48;;;;;;;1.80;1.63;;;;;;;7.13;51.22;96376.63;4930484;29;20205;-67
2022/12/18 09:33:17;;;;;;;0.08;0.08;;;;;;;6.88;51.51;96372.94;4931883;29;20260;-69
2022/12/18 09:35:45;;;;;;;0.52;0.52;;;;;;;6.86;51.71;96383.56;4933567;29;20243;-68
2022/12/18 09:38:16;;;;;;;0.90;0.57;;;;;;;7.14;50.96;96389.47;4933830;29;20212;-69
2022/12/18 09:40:53;;;;;;;7.05;1.27;;;;;;;6.81;51.46;96390.38;4921145;29;20292;-69
2022/12/18 09:43:27;;;;;;;0.10;0.10;;;;;;;6.78;52.04;96388.97;4933497;29;20837;-67
2022/12/18 09:45:59;;;;;;;1.13;0.95;;;;;;;7.01;51.05;96393.84;4933387;29;20203;-68
2022/12/18 09:48:31;;;;;;;0.28;0.25;;;;;;;6.83;51.84;96394.38;4929877;29;20189;-68
2022/12/18 09:51:03;;;;;;;0.20;0.20;;;;;;;6.84;52.13;96384.78;4920366;29;20515;-68
2022/12/18 09:53:34;;;;;;;0.43;0.43;;;;;;;7.03;51.47;96382.22;4933280;29;20208;-67
2022/12/18 09:56:05;;;;;;;0.30;0.30;;;;;;;6.97;52.10;96383.00;4933279;29;20207;-68
2022/12/18 09:58:39;;;;;;;2.35;2.17;;;;;;;7.00;53.72;96387.84;4931308;29;20197;-68
2022/12/18 10:01:14;;;;;;;2.15;1.75;;;;;;;7.17;53.51;96385.69;4929934;29;20211;-67
2022/12/18 10:03:44;;;;;;;0.75;0.75;;;;;;;6.77;52.11;96371.72;4931315;29;20294;-68
2022/12/18 10:06:19;;;;;;;0.35;0.35;;;;;;;7.07;50.50;96386.06;4947321;29;20204;-67
2022/12/18 10:09:05;;;;;;;0.10;0.10;;;;;;;6.86;50.94;96396.59;4937337;29;20196;-69
2022/12/18 10:11:39;;;;;;;0.82;0.82;;;;;;;6.98;50.62;96387.22;4932159;29;20585;-69
2022/12/18 10:14:20;;;;;;;1.83;1.70;;;;;;;7.10;50.63;96390.84;4936249;29;20660;-67
2022/12/18 10:16:59;;;;;;;0.90;0.43;;;;;;;6.89;50.51;96398.84;4930952;29;20196;-69
2022/12/18 10:19:33;;;;;;;0.10;0.10;;;;;;;7.00;50.19;96393.06;4939205;29;20203;-66
2022/12/18 10:22:15;;;;;;;1.65;1.27;;;;;;;7.40;49.76;96387.91;4932904;29;20223;-67
2022/12/18 10:25:03;;;;;;;0.10;0.10;;;;;;;7.31;49.87;96389.09;4930033;29;20228;-67
2022/12/18 10:27:31;;;;;;;0.63;0.63;;;;;;;7.37;50.05;96388.31;4931498;29;20189;-66
2022/12/18 10:30:00;;;;;;;0.00;0.00;;;;;;;7.66;49.29;96393.97;4924921;29;20276;-68
2022/12/18 10:32:30;;;;;;;0.22;0.22;;;;;;;7.39;49.51;96396.75;4943587;28;20633;-66
2022/12/18 10:34:58;;;;;;;1.27;1.20;;;;;;;7.66;49.80;96388.75;4930951;29;20240;-67
2022/12/18 10:37:29;;;;;;;2.30;1.27;;;;;;;7.70;49.73;96368.25;4940409;29;20192;-68
2022/12/18 10:40:15;;;;;;;0.03;0.03;;;;;;;7.83;48.79;96379.47;4940970;29;20286;-69
2022/12/18 10:43:11;;;;;;;4.15;1.70;;;;;;;7.80;48.89;96384.31;4925293;29;20232;-67
2022/12/18 10:45:40;;;;;;;0.20;0.20;;;;;;;7.55;48.68;96388.53;4932132;29;20235;-68
2022/12/18 10:48:21;;;;;;;2.28;1.05;;;;;;;7.49;48.96;96373.66;4946712;29;20271;-65
2022/12/18 10:50:51;;;;;;;2.58;1.55;;;;;;;7.54;55.40;96379.88;4932892;29;20240;-67
2022/12/18 10:53:41;;;;;;;2.35;0.75;;;;;;;8.03;49.79;96369.00;4931084;29;20295;-64
2022/12/18 10:56:09;;;;;;;2.15;1.30;;;;;;;7.67;49.91;96376.47;4930326;29;20215;-67
2022/12/18 10:58:38;;;;;;;0.65;0.65;;;;;;;7.70;49.96;96378.69;4932254;29;20263;-65
2022/12/18 11:01:05;;;;;;;0.60;0.60;;;;;;;7.75;50.28;96382.31;4930007;29;20817;-65
2022/12/18 11:03:35;;;;;;;0.03;0.03;;;;;;;8.09;48.99;96370.81;4930726;29;20657;-64
2022/12/18 11:06:24;;;;;;;4.13;0.80;;;;;;;7.58;50.22;96377.69;4930606;29;20205;-66
2022/12/18 11:09:24;;;;;;;1.35;1.25;;;;;;;7.90;49.01;96384.72;4938893;29;20713;-67
2022/12/18 11:11:54;;;;;;;0.93;0.93;;;;;;;7.63;50.01;96388.31;4933113;29;20214;-70
2022/12/18 11:14:43;;;;;;;0.57;0.55;;;;;;;7.67;51.53;96377.28;4932150;29;20701;-66
2022/12/18 11:17:33;;;;;;;6.72;5.53;;;;;;;8.13;50.75;96379.84;4932173;29;20676;-65
2022/12/18 11:20:06;;;;;;;3.20;1.75;;;;;;;7.64;48.99;96377.69;4944137;29;20192;-67
2022/12/18 11:22:36;;;;;;;3.28;2.05;;;;;;;7.77;50.96;96380.28;4931725;29;20208;-67
2022/12/18 11:25:17;;;;;;;0.57;0.57;;;;;;;7.69;48.41;96383.09;4931252;29;20216;-66
2022/12/18 11:28:27;;;;;;;2.15;1.95;;;;;;;7.46;49.72;96389.72;4931846;29;20208;-65
2022/12/18 11:31:12;;;;;;;1.23;1.13;;;;;;;7.67;49.09;96386.91;4933218;29;20244;-64
2022/12/18 11:33:44;;;;;;;0.25;0.25;;;;;;;7.55;49.60;96383.31;4944847;29;20228;-62
2022/12/18 11:36:41;;;;;;;0.10;0.10;;;;;;;7.46;49.39;96400.97;4945079;29;20761;-66
2022/12/18 11:39:32;;;;;;;0.05;0.05;;;;;;;7.31;50.30;96389.91;4949909;29;20254;-62
2022/12/18 11:42:11;;;;;;;1.48;0.57;;;;;;;7.50;49.27;96388.31;4950427;29;20561;-66
2022/12/18 11:44:54;;;;;;;3.50;2.55;;;;;;;7.59;49.33;96387.13;4936165;28;20339;-66
2022/12/18 11:47:37;;;;;;;1.17;1.00;;;;;;;7.71;49.70;96393.34;4932098;29;20283;-66
2022/12/18 11:50:13;;;;;;;1.08;0.22;;;;;;;7.50;49.58;96383.13;4931407;29;20201;-61
2022/12/18 11:52:41;;;;;;;0.65;0.65;;;;;;;7.69;49.16;96388.31;4931457;29;20199;-62
2022/12/18 11:55:28;;;;;;;0.08;0.08;;;;;;;7.19;49.99;96392.28;4938616;29;20211;-62
2022/12/18 11:58:10;;;;;;;1.17;1.02;;;;;;;7.41;49.90;96389.53;4933493;29;20263;-62
2022/12/18 12:01:14;;;;;;;1.95;1.20;;;;;;;7.25;49.41;96389.88;4931472;29;20204;-62
2022/12/18 12:03:53;;;;;;;0.10;0.10;;;;;;;7.20;49.89;96387.88;4925055;29;20220;-62
2022/12/18 12:06:28;;;;;;;0.63;0.50;;;;;;;7.81;50.12;96378.09;4950906;29;20199;-64
2022/12/18 12:09:23;;;;;;;0.85;0.20;;;;;;;7.57;49.25;96391.75;4935108;29;20292;-62
2022/12/18 12:11:52;;;;;;;0.28;0.28;;;;;;;7.48;49.51;96395.53;4918528;29;20307;-64
2022/12/18 12:14:43;;;;;;;5.57;1.27;;;;;;;7.36;49.12;96391.91;4914209;29;20300;-65
2022/12/18 12:17:22;;;;;;;0.50;0.47;;;;;;;7.31;48.98;96389.09;4931492;29;20231;-63
2022/12/18 12:20:01;;;;;;;1.15;1.05;;;;;;;7.44;49.44;96389.13;4930702;29;20206;-63
2022/12/18 12:22:53;;;;;;;1.27;1.05;;;;;;;6.98;50.65;96392.44;4931269;29;20647;-65
2022/12/18 12:25:47;;;;;;;9.20;2.60;;;;;;;6.79;51.40;96395.78;4930646;29;20239;-61
2022/12/18 12:28:52;;;;;;;0.00;0.00;;;;;;;6.86;51.00;96393.22;4931127;29;20231;-61
2022/12/18 12:31:52;;;;;;;0.10;0.10;;;;;;;7.05;50.18;96395.88;4924847;29;20204;-62
2022/12/18 12:34:25;;;;;;;0.68;0.68;;;;;;;7.15;49.59;96393.66;4931448;29;20211;-62
2022/12/18 12:37:15;;;;;;;0.73;0.73;;;;;;;7.14;50.30;96405.13;4931019;29;20207;-65
2022/12/18 12:39:44;;;;;;;1.65;0.95;;;;;;;7.10;50.03;96403.88;4914327;29;20292;-64
2022/12/18 12:45:06;;;;;;;0.45;0.45;;;;;;;7.24;49.85;96402.13;4929354;29;20782;-63
2022/12/18 12:47:39;;;;;;;0.03;0.03;;;;;;;7.35;50.04;96395.53;4927824;29;20208;-63
2022/12/18 12:50:15;;;;;;;0.00;0.00;;;;;;;7.22;50.04;96400.72;4930844;29;20207;-63
2022/12/18 12:52:53;;;;;;;0.63;0.63;;;;;;;7.07;49.81;96393.88;4924619;29;20196;-65
2022/12/18 12:55:23;;;;;;;0.15;0.15;;;;;;;7.31;49.92;96404.75;4923310;29;20212;-63
2022/12/18 12:58:10;;;;;;;0.20;0.20;;;;;;;7.14;51.08;96414.72;4920713;29;20708;-63
2022/12/18 13:00:54;;;;;;;0.70;0.70;;;;;;;7.39;53.66;96401.97;4927756;29;20200;-63
2022/12/18 13:03:57;;;;;;;0.80;0.80;;;;;;;7.59;50.16;96418.44;4922010;29;20209;-63
2022/12/18 13:06:50;;;;;;;0.05;0.05;;;;;;;7.56;49.39;96418.81;4908779;29;20200;-62
2022/12/18 13:09:17;;;;;;;0.43;0.43;;;;;;;7.57;48.93;96415.22;4919095;29;20264;-63
2022/12/18 13:14:40;;;;;;;0.40;0.40;;;;;;;7.15;50.63;96424.16;4920436;29;20208;-60
2022/12/18 13:17:21;;;;;;;0.30;0.30;;;;;;;7.50;50.04;96436.06;4914879;29;20207;-61